tititudorancea.com
Station Historical Data
Daily Summary for December 8, 2018 Units:  Both    English   Metric
« Previous Day
Next Day »
Daily Weekly Monthly Yearly Custom
  High: Low: Average:
Temperature: TemperatureF °F /  -17.8 °C 57 °F /  13.9 °C 72.5 °F /  22.5 °C
Dew Point: DewpointF °F /  -17.8 °C 51.3 °F /  10.7 °C 56.2 °F /  13.4 °C
Humidity: Humidity % 34 % 59 %
Wind Speed: WindSpeedMPH mph /  0 km/h - 8.4 mph /  13.5 km/h
Wind Gust: WindSpeedGustMPH mph /  0 km/h - -
Wind:- - South
Pressure: PressureIn in /  0 hPa 29.80 in /  1009 hPa -
Precipitation: 0 in /  0 mm    
Historical Graphs
 
 
Ararat weather Find more about Weather in Ararat, AU


 



 


Tabular Data for December 8, 2018
Time Temperature Dew Point Pressure Wind Wind Speed Wind Gust Humidity Rainfall Rate (Hourly)
TemperatureF °F /  -17.8 °C DewpointF °F /  -17.8 °C PressureIn in /  0 hPa Calm     Humidity % HourlyPrecipIn in /  0 mm
00:04 73 °F /  22.8 °C 53.3 °F /  11.8 °C 29.85 in /  1010.7 hPa Calm     50 % 0 in /  0 mm
00:09 72.9 °F /  22.7 °C 53.2 °F /  11.8 °C 29.85 in /  1010.7 hPa SSW 3.5 mph /  5.6 km/h 1.7 mph /  2.7 km/h 50 % 0 in /  0 mm
00:14 72.9 °F /  22.7 °C 53.2 °F /  11.8 °C 29.85 in /  1010.7 hPa SSW 1.2 mph /  1.9 km/h 0.3 mph /  0.5 km/h 50 % 0 in /  0 mm
00:19 72.8 °F /  22.7 °C 53.6 °F /  12 °C 29.84 in /  1010.4 hPa SSW 2.3 mph /  3.7 km/h 2.1 mph /  3.4 km/h 51 % 0 in /  0 mm
00:24 72.8 °F /  22.7 °C 53.1 °F /  11.7 °C 29.84 in /  1010.4 hPa SSW 3.5 mph /  5.6 km/h 1.5 mph /  2.4 km/h 50 % 0 in /  0 mm
00:29 73 °F /  22.8 °C 53.8 °F /  12.1 °C 29.83 in /  1010 hPa SSW 2.3 mph /  3.7 km/h 0.7 mph /  1.1 km/h 51 % 0 in /  0 mm
00:34 73 °F /  22.8 °C 53.3 °F /  11.8 °C 29.83 in /  1010 hPa Calm     50 % 0 in /  0 mm
00:39 72.9 °F /  22.7 °C 53.7 °F /  12.1 °C 29.83 in /  1010 hPa Calm     51 % 0 in /  0 mm
00:44 72.7 °F /  22.6 °C 53.5 °F /  11.9 °C 29.84 in /  1010.4 hPa Calm     51 % 0 in /  0 mm
00:49 72.6 °F /  22.6 °C 54 °F /  12.2 °C 29.84 in /  1010.4 hPa SSW 3.5 mph /  5.6 km/h 1 mph /  1.6 km/h 52 % 0 in /  0 mm
00:54 72.4 °F /  22.4 °C 53.8 °F /  12.1 °C 29.83 in /  1010 hPa Calm     52 % 0 in /  0 mm
00:59 72.2 °F /  22.3 °C 54.1 °F /  12.3 °C 29.84 in /  1010.4 hPa SSW 3.5 mph /  5.6 km/h 1.3 mph /  2.1 km/h 53 % 0 in /  0 mm
01:04 72.1 °F /  22.3 °C 53.5 °F /  11.9 °C 29.83 in /  1010 hPa SSW 3.5 mph /  5.6 km/h 2.5 mph /  4 km/h 52 % 0 in /  0 mm
01:09 72.3 °F /  22.4 °C 54.2 °F /  12.3 °C 29.82 in /  1009.7 hPa SSW 1.2 mph /  1.9 km/h 0.5 mph /  0.8 km/h 53 % 0 in /  0 mm
01:14 72.4 °F /  22.4 °C 53.8 °F /  12.1 °C 29.82 in /  1009.7 hPa Calm     52 % 0 in /  0 mm
01:19 72.3 °F /  22.4 °C 54.2 °F /  12.3 °C 29.82 in /  1009.7 hPa SSW 1 mph /  1.6 km/h 0.1 mph /  0.2 km/h 53 % 0 in /  0 mm
01:24 72.3 °F /  22.4 °C 53.7 °F /  12.1 °C 29.82 in /  1009.7 hPa SSW 3.5 mph /  5.6 km/h 1.6 mph /  2.6 km/h 52 % 0 in /  0 mm
01:29 72.7 °F /  22.6 °C 53.5 °F /  11.9 °C 29.83 in /  1010 hPa SSW 5.8 mph /  9.3 km/h 5.3 mph /  8.5 km/h 51 % 0 in /  0 mm
01:34 73.4 °F /  23 °C 53.1 °F /  11.7 °C 29.84 in /  1010.4 hPa SSW 6 mph /  9.7 km/h 5.8 mph /  9.3 km/h 49 % 0 in /  0 mm
01:39 74 °F /  23.3 °C 51.9 °F /  11.1 °C 29.83 in /  1010 hPa SSW 6 mph /  9.7 km/h 3.8 mph /  6.1 km/h 46 % 0 in /  0 mm
01:44 74.8 °F /  23.8 °C 51.4 °F /  10.8 °C 29.82 in /  1009.7 hPa South 3.5 mph /  5.6 km/h 1.4 mph /  2.3 km/h 44 % 0 in /  0 mm
01:49 75.4 °F /  24.1 °C 52 °F /  11.1 °C 29.81 in /  1009.4 hPa South 2.3 mph /  3.7 km/h 1.6 mph /  2.6 km/h 44 % 0 in /  0 mm
01:54 75.7 °F /  24.3 °C 52.2 °F /  11.2 °C 29.81 in /  1009.4 hPa South 4 mph /  6.4 km/h 2.8 mph /  4.5 km/h 44 % 0 in /  0 mm
01:59 75.6 °F /  24.2 °C 52.8 °F /  11.6 °C 29.81 in /  1009.4 hPa Calm     45 % 0 in /  0 mm
02:04 75.4 °F /  24.1 °C 52.6 °F /  11.4 °C 29.81 in /  1009.4 hPa Calm     45 % 0 in /  0 mm
02:09 75.1 °F /  23.9 °C 52.9 °F /  11.6 °C 29.81 in /  1009.4 hPa Calm     46 % 0 in /  0 mm
02:14 75 °F /  23.9 °C 52.8 °F /  11.6 °C 29.81 in /  1009.4 hPa South 2.3 mph /  3.7 km/h 2 mph /  3.2 km/h 46 % 0 in /  0 mm
02:19 74.9 °F /  23.8 °C 52.7 °F /  11.5 °C 29.81 in /  1009.4 hPa South 1.2 mph /  1.9 km/h   46 % 0 in /  0 mm
02:24 74.8 °F /  23.8 °C 52.6 °F /  11.4 °C 29.80 in /  1009 hPa Calm     46 % 0 in /  0 mm
02:29 74.6 °F /  23.7 °C 53 °F /  11.7 °C 29.81 in /  1009.4 hPa Calm     47 % 0 in /  0 mm
02:34 74.3 °F /  23.5 °C 52.8 °F /  11.6 °C 29.81 in /  1009.4 hPa South 1.2 mph /  1.9 km/h 0.2 mph /  0.3 km/h 47 % 0 in /  0 mm
02:39 74.2 °F /  23.4 °C 53.2 °F /  11.8 °C 29.81 in /  1009.4 hPa South 2.3 mph /  3.7 km/h 2.2 mph /  3.5 km/h 48 % 0 in /  0 mm
02:44 74.3 °F /  23.5 °C 52.8 °F /  11.6 °C 29.81 in /  1009.4 hPa South 4.6 mph /  7.4 km/h 2.3 mph /  3.7 km/h 47 % 0 in /  0 mm
02:49 74.5 °F /  23.6 °C 52.9 °F /  11.6 °C 29.81 in /  1009.4 hPa South 3.5 mph /  5.6 km/h 0.1 mph /  0.2 km/h 47 % 0 in /  0 mm
02:54 74.3 °F /  23.5 °C 53.3 °F /  11.8 °C 29.80 in /  1009 hPa Calm     48 % 0 in /  0 mm
02:59 73.9 °F /  23.3 °C 54.1 °F /  12.3 °C 29.80 in /  1009 hPa South 4.6 mph /  7.4 km/h 2 mph /  3.2 km/h 50 % 0 in /  0 mm
03:04 73.6 °F /  23.1 °C 53.8 °F /  12.1 °C 29.80 in /  1009 hPa South 2.3 mph /  3.7 km/h 0.7 mph /  1.1 km/h 50 % 0 in /  0 mm
03:09 73.6 °F /  23.1 °C 53.8 °F /  12.1 °C 29.82 in /  1009.7 hPa South 2.3 mph /  3.7 km/h 1.1 mph /  1.8 km/h 50 % 0 in /  0 mm
03:14 73.4 °F /  23 °C 54.7 °F /  12.6 °C 29.82 in /  1009.7 hPa South 2.3 mph /  3.7 km/h 1.7 mph /  2.7 km/h 52 % 0 in /  0 mm
03:19 73.4 °F /  23 °C 53.1 °F /  11.7 °C 29.81 in /  1009.4 hPa South 8.1 mph /  13 km/h 6.6 mph /  10.6 km/h 49 % 0 in /  0 mm
03:24 74.9 °F /  23.8 °C 52.1 °F /  11.2 °C 29.82 in /  1009.7 hPa South 6.9 mph /  11.1 km/h 2.9 mph /  4.7 km/h 45 % 0 in /  0 mm
03:29 75.9 °F /  24.4 °C 52.4 °F /  11.3 °C 29.82 in /  1009.7 hPa South 6.9 mph /  11.1 km/h 5.5 mph /  8.9 km/h 44 % 0 in /  0 mm
03:34 76.7 °F /  24.8 °C 51.9 °F /  11.1 °C 29.82 in /  1009.7 hPa South 8.1 mph /  13 km/h 6.7 mph /  10.8 km/h 42 % 0 in /  0 mm
03:39 77.4 °F /  25.2 °C 51.9 °F /  11.1 °C 29.83 in /  1010 hPa South 3.5 mph /  5.6 km/h 2.3 mph /  3.7 km/h 41 % 0 in /  0 mm
03:44 77.5 °F /  25.3 °C 51.9 °F /  11.1 °C 29.84 in /  1010.4 hPa South 3.5 mph /  5.6 km/h 1.5 mph /  2.4 km/h 41 % 0 in /  0 mm
03:49 77.4 °F /  25.2 °C 52.5 °F /  11.4 °C 29.86 in /  1011.1 hPa SW 12 mph /  19.3 km/h 8.4 mph /  13.5 km/h 42 % 0 in /  0 mm
03:54 77.9 °F /  25.5 °C 51.6 °F /  10.9 °C 29.86 in /  1011.1 hPa West 11 mph /  17.7 km/h 9.1 mph /  14.6 km/h 40 % 0 in /  0 mm
03:59 78.3 °F /  25.7 °C 51.3 °F /  10.7 °C 29.86 in /  1011.1 hPa West 20.7 mph /  33.3 km/h 14 mph /  22.5 km/h 39 % 0 in /  0 mm
04:04 77.8 °F /  25.4 °C 51.5 °F /  10.8 °C 29.86 in /  1011.1 hPa WSW 18.4 mph /  29.6 km/h 10.2 mph /  16.4 km/h 40 % 0 in /  0 mm
04:09 77.1 °F /  25.1 °C 52.2 °F /  11.2 °C 29.86 in /  1011.1 hPa SW 15 mph /  24.1 km/h 3.9 mph /  6.3 km/h 42 % 0 in /  0 mm
04:14 76.6 °F /  24.8 °C 52.4 °F /  11.3 °C 29.86 in /  1011.1 hPa SW 9.2 mph /  14.8 km/h 4.3 mph /  6.9 km/h 43 % 0 in /  0 mm
04:19 76.3 °F /  24.6 °C 52.8 °F /  11.6 °C 29.86 in /  1011.1 hPa SW 9 mph /  14.5 km/h 5 mph /  8 km/h 44 % 0 in /  0 mm
04:24 75.9 °F /  24.4 °C 54.2 °F /  12.3 °C 29.87 in /  1011.4 hPa SW 11.5 mph /  18.5 km/h 5.8 mph /  9.3 km/h 47 % 0 in /  0 mm
04:29 75.5 °F /  24.2 °C 55 °F /  12.8 °C 29.88 in /  1011.7 hPa SW 12.7 mph /  20.4 km/h 7.2 mph /  11.6 km/h 49 % 0 in /  0 mm
04:34 75.3 °F /  24.1 °C 55.4 °F /  13 °C 29.88 in /  1011.7 hPa SW 11.5 mph /  18.5 km/h 6.5 mph /  10.5 km/h 50 % 0 in /  0 mm
04:39 75 °F /  23.9 °C 55.1 °F /  12.8 °C 29.88 in /  1011.7 hPa SW 6.9 mph /  11.1 km/h 4.6 mph /  7.4 km/h 50 % 0 in /  0 mm
04:44 74.8 °F /  23.8 °C 54.9 °F /  12.7 °C 29.88 in /  1011.7 hPa SW 6.9 mph /  11.1 km/h 4.8 mph /  7.7 km/h 50 % 0 in /  0 mm
04:49 74.9 °F /  23.8 °C 54.4 °F /  12.4 °C 29.88 in /  1011.7 hPa WSW 8.1 mph /  13 km/h 3.9 mph /  6.3 km/h 49 % 0 in /  0 mm
04:54 75.1 °F /  23.9 °C 54.6 °F /  12.6 °C 29.88 in /  1011.7 hPa SW 6.9 mph /  11.1 km/h 5.1 mph /  8.2 km/h 49 % 0 in /  0 mm
04:59 75.2 °F /  24 °C 54.7 °F /  12.6 °C 29.88 in /  1011.7 hPa SW 3.5 mph /  5.6 km/h 3.4 mph /  5.5 km/h 49 % 0 in /  0 mm
05:04 75.1 °F /  23.9 °C 55.2 °F /  12.9 °C 29.87 in /  1011.4 hPa SW 4.6 mph /  7.4 km/h 1.2 mph /  1.9 km/h 50 % 0 in /  0 mm
05:09 74.8 °F /  23.8 °C 55.5 °F /  13.1 °C 29.86 in /  1011.1 hPa SSW 4.6 mph /  7.4 km/h 2.4 mph /  3.9 km/h 51 % 0 in /  0 mm
05:14 74.2 °F /  23.4 °C 56.5 °F /  13.6 °C 29.86 in /  1011.1 hPa SSW 3.5 mph /  5.6 km/h 2 mph /  3.2 km/h 54 % 0 in /  0 mm
05:19 73.3 °F /  22.9 °C 55.6 °F /  13.1 °C 29.87 in /  1011.4 hPa South 6.9 mph /  11.1 km/h 4.4 mph /  7.1 km/h 54 % 0 in /  0 mm
05:24 72.6 °F /  22.6 °C 55 °F /  12.8 °C 29.87 in /  1011.4 hPa SE 6 mph /  9.7 km/h 5.6 mph /  9 km/h 54 % 0 in /  0 mm
05:29 72 °F /  22.2 °C 54.9 °F /  12.7 °C 29.88 in /  1011.7 hPa ESE 5.8 mph /  9.3 km/h 4.9 mph /  7.9 km/h 55 % 0 in /  0 mm
05:34 71.6 °F /  22 °C 54.6 °F /  12.6 °C 29.88 in /  1011.7 hPa ESE 5.8 mph /  9.3 km/h 3.7 mph /  6 km/h 55 % 0 in /  0 mm
05:39 71.4 °F /  21.9 °C 54.4 °F /  12.4 °C 29.87 in /  1011.4 hPa ESE 4.6 mph /  7.4 km/h 1.4 mph /  2.3 km/h 55 % 0 in /  0 mm
05:44 71.2 °F /  21.8 °C 54.7 °F /  12.6 °C 29.87 in /  1011.4 hPa ESE 4.6 mph /  7.4 km/h 1.5 mph /  2.4 km/h 56 % 0 in /  0 mm
05:49 71 °F /  21.7 °C 54.5 °F /  12.5 °C 29.88 in /  1011.7 hPa Calm     56 % 0 in /  0 mm
05:54 70.9 °F /  21.6 °C 54.9 °F /  12.7 °C 29.89 in /  1012.1 hPa ESE 2 mph /  3.2 km/h 0.8 mph /  1.3 km/h 57 % 0 in /  0 mm
05:59 70.6 °F /  21.4 °C 55.1 °F /  12.8 °C 29.89 in /  1012.1 hPa ESE 3.5 mph /  5.6 km/h 2.5 mph /  4 km/h 58 % 0 in /  0 mm
06:04 70.4 °F /  21.3 °C 55.4 °F /  13 °C 29.89 in /  1012.1 hPa ESE 2.3 mph /  3.7 km/h 0.7 mph /  1.1 km/h 59 % 0 in /  0 mm
06:09 70.2 °F /  21.2 °C 56.6 °F /  13.7 °C 29.88 in /  1011.7 hPa ESE 2.3 mph /  3.7 km/h 1.6 mph /  2.6 km/h 62 % 0 in /  0 mm
06:14 69.8 °F /  21 °C 57.1 °F /  13.9 °C 29.88 in /  1011.7 hPa Calm     64 % 0 in /  0 mm
06:19 69.1 °F /  20.6 °C 57.7 °F /  14.3 °C 29.89 in /  1012.1 hPa ESE 4 mph /  6.4 km/h 3.2 mph /  5.1 km/h 67 % 0 in /  0 mm
06:24 68.2 °F /  20.1 °C 58 °F /  14.4 °C 29.89 in /  1012.1 hPa ESE 4 mph /  6.4 km/h 2.9 mph /  4.7 km/h 70 % 0 in /  0 mm
06:29 68 °F /  20 °C 58.2 °F /  14.6 °C 29.89 in /  1012.1 hPa ESE 3.5 mph /  5.6 km/h 0.5 mph /  0.8 km/h 71 % 0 in /  0 mm
06:34 67.9 °F /  19.9 °C 58.5 °F /  14.7 °C 29.88 in /  1011.7 hPa Calm     72 % 0 in /  0 mm
06:39 67.9 °F /  19.9 °C 58.9 °F /  14.9 °C 29.88 in /  1011.7 hPa Calm     73 % 0 in /  0 mm
06:44 67.8 °F /  19.9 °C 58.8 °F /  14.9 °C 29.89 in /  1012.1 hPa ESE 2 mph /  3.2 km/h 0.6 mph /  1 km/h 73 % 0 in /  0 mm
06:49 67.6 °F /  19.8 °C 59.8 °F /  15.4 °C 29.89 in /  1012.1 hPa ESE 4 mph /  6.4 km/h 2.9 mph /  4.7 km/h 76 % 0 in /  0 mm
06:54 67.6 °F /  19.8 °C 60.1 °F /  15.6 °C 29.89 in /  1012.1 hPa ESE 1.2 mph /  1.9 km/h   77 % 0 in /  0 mm
06:59 67.9 °F /  19.9 °C 61.1 °F /  16.2 °C 29.88 in /  1011.7 hPa Calm     79 % 0 in /  0 mm
07:04 68.1 °F /  20.1 °C 61.3 °F /  16.3 °C 29.88 in /  1011.7 hPa Calm     79 % 0 in /  0 mm
07:09 68.6 °F /  20.3 °C 61.8 °F /  16.6 °C 29.89 in /  1012.1 hPa Calm     79 % 0 in /  0 mm
07:14 69 °F /  20.6 °C 61.5 °F /  16.4 °C 29.89 in /  1012.1 hPa ESE 3.5 mph /  5.6 km/h 1.5 mph /  2.4 km/h 77 % 0 in /  0 mm
07:19 69.6 °F /  20.9 °C 61.3 °F /  16.3 °C 29.88 in /  1011.7 hPa Calm     75 % 0 in /  0 mm
07:24 70.3 °F /  21.3 °C 61.2 °F /  16.2 °C 29.88 in /  1011.7 hPa Calm     73 % 0 in /  0 mm
07:29 70.9 °F /  21.6 °C 60.6 °F /  15.9 °C 29.88 in /  1011.7 hPa ESE 4 mph /  6.4 km/h 3.4 mph /  5.5 km/h 70 % 0 in /  0 mm
07:34 71.2 °F /  21.8 °C 59.7 °F /  15.4 °C 29.88 in /  1011.7 hPa ESE 2.3 mph /  3.7 km/h 1.6 mph /  2.6 km/h 67 % 0 in /  0 mm
07:39 71.7 °F /  22.1 °C 59.7 °F /  15.4 °C 29.88 in /  1011.7 hPa ESE 3.5 mph /  5.6 km/h 2.3 mph /  3.7 km/h 66 % 0 in /  0 mm
07:44 72.5 °F /  22.5 °C 59.6 °F /  15.3 °C 29.89 in /  1012.1 hPa ESE 4.6 mph /  7.4 km/h 4.5 mph /  7.2 km/h 64 % 0 in /  0 mm
07:49 73.2 °F /  22.9 °C 59.4 °F /  15.2 °C 29.89 in /  1012.1 hPa ESE 3.5 mph /  5.6 km/h 4.1 mph /  6.6 km/h 62 % 0 in /  0 mm
07:54 74.1 °F /  23.4 °C 58.9 °F /  14.9 °C 29.89 in /  1012.1 hPa ESE 3.5 mph /  5.6 km/h 1.3 mph /  2.1 km/h 59 % 0 in /  0 mm
07:59 74.7 °F /  23.7 °C 59.4 °F /  15.2 °C 29.89 in /  1012.1 hPa East 3 mph /  4.8 km/h 0.9 mph /  1.4 km/h 59 % 0 in /  0 mm
08:04 75.3 °F /  24.1 °C 58.5 °F /  14.7 °C 29.90 in /  1012.4 hPa Calm     56 % 0 in /  0 mm
08:09 75.6 °F /  24.2 °C 57.8 °F /  14.3 °C 29.90 in /  1012.4 hPa Calm     54 % 0 in /  0 mm
08:14 75.7 °F /  24.3 °C 58.4 °F /  14.7 °C 29.90 in /  1012.4 hPa East 1.2 mph /  1.9 km/h 0.1 mph /  0.2 km/h 55 % 0 in /  0 mm
08:19 75.7 °F /  24.3 °C 57.9 °F /  14.4 °C 29.91 in /  1012.8 hPa East 3.5 mph /  5.6 km/h 2.1 mph /  3.4 km/h 54 % 0 in /  0 mm
08:23 75.7 °F /  24.3 °C 57.9 °F /  14.4 °C 29.91 in /  1012.8 hPa East 3.5 mph /  5.6 km/h 2.4 mph /  3.9 km/h 54 % 0 in /  0 mm
08:33 75.6 °F /  24.2 °C 57.3 °F /  14.1 °C 29.91 in /  1012.8 hPa East 3.5 mph /  5.6 km/h 1.9 mph /  3.1 km/h 53 % 0 in /  0 mm
08:49 75.9 °F /  24.4 °C 57 °F /  13.9 °C 29.91 in /  1012.8 hPa East 4 mph /  6.4 km/h 3.5 mph /  5.6 km/h 52 % 0 in /  0 mm
08:50 75.9 °F /  24.4 °C 57 °F /  13.9 °C 29.91 in /  1012.8 hPa East 3.5 mph /  5.6 km/h 3.2 mph /  5.1 km/h 52 % 0 in /  0 mm
08:59 76.3 °F /  24.6 °C 57.4 °F /  14.1 °C 29.92 in /  1013.1 hPa East 4 mph /  6.4 km/h 2.9 mph /  4.7 km/h 52 % 0 in /  0 mm
09:04 76.6 °F /  24.8 °C 57.1 °F /  13.9 °C 29.92 in /  1013.1 hPa East 3.5 mph /  5.6 km/h 1.2 mph /  1.9 km/h 51 % 0 in /  0 mm
09:09 77.1 °F /  25.1 °C 57 °F /  13.9 °C 29.92 in /  1013.1 hPa East 3.5 mph /  5.6 km/h 1.6 mph /  2.6 km/h 50 % 0 in /  0 mm
09:14 77.5 °F /  25.3 °C 57.9 °F /  14.4 °C 29.92 in /  1013.1 hPa East 1.2 mph /  1.9 km/h 0.4 mph /  0.6 km/h 51 % 0 in /  0 mm
09:19 77.7 °F /  25.4 °C 57.6 °F /  14.2 °C 29.92 in /  1013.1 hPa East 3.5 mph /  5.6 km/h 2.9 mph /  4.7 km/h 50 % 0 in /  0 mm
09:24 77.8 °F /  25.4 °C 58.2 °F /  14.6 °C 29.93 in /  1013.4 hPa Calm     51 % 0 in /  0 mm
09:29 77.9 °F /  25.5 °C 56.6 °F /  13.7 °C 29.93 in /  1013.4 hPa East 3.5 mph /  5.6 km/h 2.8 mph /  4.5 km/h 48 % 0 in /  0 mm
09:34 78 °F /  25.6 °C 56.1 °F /  13.4 °C 29.91 in /  1012.8 hPa East 5.8 mph /  9.3 km/h 3.1 mph /  5 km/h 47 % 0 in /  0 mm
09:39 78.1 °F /  25.6 °C 57.4 °F /  14.1 °C 29.91 in /  1012.8 hPa East 3.5 mph /  5.6 km/h 0.4 mph /  0.6 km/h 49 % 0 in /  0 mm
09:44 78.4 °F /  25.8 °C 56.5 °F /  13.6 °C 29.92 in /  1013.1 hPa East 3.5 mph /  5.6 km/h 1.8 mph /  2.9 km/h 47 % 0 in /  0 mm
09:49 79 °F /  26.1 °C 55.8 °F /  13.2 °C 29.92 in /  1013.1 hPa East 1.2 mph /  1.9 km/h 0.3 mph /  0.5 km/h 45 % 0 in /  0 mm
09:54 79.6 °F /  26.4 °C 55.8 °F /  13.2 °C 29.92 in /  1013.1 hPa East 3.5 mph /  5.6 km/h 2.7 mph /  4.3 km/h 44 % 0 in /  0 mm
09:59 79.6 °F /  26.4 °C 56.4 °F /  13.6 °C 29.91 in /  1012.8 hPa East 5 mph /  8 km/h 2.2 mph /  3.5 km/h 45 % 0 in /  0 mm
10:04 79.6 °F /  26.4 °C 55.8 °F /  13.2 °C 29.91 in /  1012.8 hPa East 3.5 mph /  5.6 km/h 0.6 mph /  1 km/h 44 % 0 in /  0 mm
10:09 79.7 °F /  26.5 °C 55.9 °F /  13.3 °C 29.91 in /  1012.8 hPa East 5.8 mph /  9.3 km/h 3.5 mph /  5.6 km/h 44 % 0 in /  0 mm
10:14 79.5 °F /  26.4 °C 55 °F /  12.8 °C 29.91 in /  1012.8 hPa East 4 mph /  6.4 km/h 3.3 mph /  5.3 km/h 43 % 0 in /  0 mm
10:19 79.4 °F /  26.3 °C 55.6 °F /  13.1 °C 29.91 in /  1012.8 hPa East 3.5 mph /  5.6 km/h 0.6 mph /  1 km/h 44 % 0 in /  0 mm
10:24 79.6 °F /  26.4 °C 55.1 °F /  12.8 °C 29.91 in /  1012.8 hPa East 3.5 mph /  5.6 km/h 2.1 mph /  3.4 km/h 43 % 0 in /  0 mm
10:29 79.9 °F /  26.6 °C 55.4 °F /  13 °C 29.91 in /  1012.8 hPa East 3.5 mph /  5.6 km/h 1.8 mph /  2.9 km/h 43 % 0 in /  0 mm
10:34 80 °F /  26.7 °C 54.8 °F /  12.7 °C 29.91 in /  1012.8 hPa East 5.8 mph /  9.3 km/h 2.9 mph /  4.7 km/h 42 % 0 in /  0 mm
10:39 79.8 °F /  26.6 °C 54 °F /  12.2 °C 29.91 in /  1012.8 hPa East 5.8 mph /  9.3 km/h 3.1 mph /  5 km/h 41 % 0 in /  0 mm
10:44 79.7 °F /  26.5 °C 54.6 °F /  12.6 °C 29.91 in /  1012.8 hPa East 3.5 mph /  5.6 km/h 3.5 mph /  5.6 km/h 42 % 0 in /  0 mm
10:49 79.6 °F /  26.4 °C 54.5 °F /  12.5 °C 29.90 in /  1012.4 hPa East 4.6 mph /  7.4 km/h 1.3 mph /  2.1 km/h 42 % 0 in /  0 mm
10:54 79.5 °F /  26.4 °C 55.7 °F /  13.2 °C 29.91 in /  1012.8 hPa East 3.5 mph /  5.6 km/h 0.8 mph /  1.3 km/h 44 % 0 in /  0 mm
10:59 79.2 °F /  26.2 °C 55.4 °F /  13 °C 29.91 in /  1012.8 hPa East 3.5 mph /  5.6 km/h 2 mph /  3.2 km/h 44 % 0 in /  0 mm
11:04 79.2 °F /  26.2 °C 56 °F /  13.3 °C 29.90 in /  1012.4 hPa East 2.3 mph /  3.7 km/h 0.8 mph /  1.3 km/h 45 % 0 in /  0 mm
11:09 79.4 °F /  26.3 °C 56.2 °F /  13.4 °C 29.90 in /  1012.4 hPa East 1.2 mph /  1.9 km/h 0.2 mph /  0.3 km/h 45 % 0 in /  0 mm
11:14 80.4 °F /  26.9 °C 55.9 °F /  13.3 °C 29.90 in /  1012.4 hPa East 3.5 mph /  5.6 km/h 3.5 mph /  5.6 km/h 43 % 0 in /  0 mm
11:19 80.4 °F /  26.9 °C 55.9 °F /  13.3 °C 29.90 in /  1012.4 hPa East 2.3 mph /  3.7 km/h 1.5 mph /  2.4 km/h 43 % 0 in /  0 mm
11:24 80.7 °F /  27.1 °C 55.5 °F /  13.1 °C 29.90 in /  1012.4 hPa East 1.2 mph /  1.9 km/h 0.4 mph /  0.6 km/h 42 % 0 in /  0 mm
11:29 81.5 °F /  27.5 °C 54.8 °F /  12.7 °C 29.90 in /  1012.4 hPa East 3.5 mph /  5.6 km/h 2.8 mph /  4.5 km/h 40 % 0 in /  0 mm
11:34 82.1 °F /  27.8 °C 55.4 °F /  13 °C 29.90 in /  1012.4 hPa East 2.3 mph /  3.7 km/h 1.2 mph /  1.9 km/h 40 % 0 in /  0 mm
11:39 82.5 °F /  28.1 °C 55 °F /  12.8 °C 29.90 in /  1012.4 hPa East 2.3 mph /  3.7 km/h 1.3 mph /  2.1 km/h 39 % 0 in /  0 mm
11:40 82.6 °F /  28.1 °C 55.1 °F /  12.8 °C 29.90 in /  1012.4 hPa East 3 mph /  4.8 km/h 1.9 mph /  3.1 km/h 39 % 0 in /  0 mm
12:39 86.2 °F /  30.1 °C 55.3 °F /  12.9 °C 29.90 in /  1012.4 hPa NNW 4.6 mph /  7.4 km/h 4.3 mph /  6.9 km/h 35 % 0 in /  0 mm
12:44 86.5 °F /  30.3 °C 54.8 °F /  12.7 °C 29.90 in /  1012.4 hPa NNW 6.9 mph /  11.1 km/h 6.1 mph /  9.8 km/h 34 % 0 in /  0 mm
12:49 86.1 °F /  30.1 °C 54.5 °F /  12.5 °C 29.90 in /  1012.4 hPa NW 9.2 mph /  14.8 km/h 8 mph /  12.9 km/h 34 % 0 in /  0 mm
12:54 85.6 °F /  29.8 °C 54 °F /  12.2 °C 29.90 in /  1012.4 hPa NW 11.5 mph /  18.5 km/h 9.8 mph /  15.8 km/h 34 % 0 in /  0 mm
12:59 85.8 °F /  29.9 °C 55 °F /  12.8 °C 29.90 in /  1012.4 hPa West 10 mph /  16.1 km/h 7.5 mph /  12.1 km/h 35 % 0 in /  0 mm
13:04 85.8 °F /  29.9 °C 54.2 °F /  12.3 °C 29.90 in /  1012.4 hPa West 10 mph /  16.1 km/h 5.8 mph /  9.3 km/h 34 % 0 in /  0 mm
13:09 85.4 °F /  29.7 °C 54.6 °F /  12.6 °C 29.90 in /  1012.4 hPa West 5.8 mph /  9.3 km/h 2.2 mph /  3.5 km/h 35 % 0 in /  0 mm
13:14 85.5 °F /  29.7 °C 54.7 °F /  12.6 °C 29.90 in /  1012.4 hPa West 6.9 mph /  11.1 km/h 5.5 mph /  8.9 km/h 35 % 0 in /  0 mm
13:19 85.7 °F /  29.8 °C 54.1 °F /  12.3 °C 29.90 in /  1012.4 hPa NW 11.5 mph /  18.5 km/h 9.4 mph /  15.1 km/h 34 % 0 in /  0 mm
13:24 85.2 °F /  29.6 °C 54.5 °F /  12.5 °C 29.90 in /  1012.4 hPa NW 8.1 mph /  13 km/h 5.4 mph /  8.7 km/h 35 % 0 in /  0 mm
13:29 85.1 °F /  29.5 °C 55.1 °F /  12.8 °C 29.90 in /  1012.4 hPa North 8.1 mph /  13 km/h 5.7 mph /  9.2 km/h 36 % 0 in /  0 mm
13:34 85.6 °F /  29.8 °C 54.8 °F /  12.7 °C 29.90 in /  1012.4 hPa North 6.9 mph /  11.1 km/h 5.3 mph /  8.5 km/h 35 % 0 in /  0 mm
13:39 85.5 °F /  29.7 °C 55.5 °F /  13.1 °C 29.90 in /  1012.4 hPa NNW 8 mph /  12.9 km/h 4.9 mph /  7.9 km/h 36 % 0 in /  0 mm
13:44 85.2 °F /  29.6 °C 55.2 °F /  12.9 °C 29.90 in /  1012.4 hPa NW 11.5 mph /  18.5 km/h 5.1 mph /  8.2 km/h 36 % 0 in /  0 mm
13:49 85.4 °F /  29.7 °C 56.2 °F /  13.4 °C 29.90 in /  1012.4 hPa NW 6.9 mph /  11.1 km/h 5 mph /  8 km/h 37 % 0 in /  0 mm
13:54 85.6 °F /  29.8 °C 55.6 °F /  13.1 °C 29.90 in /  1012.4 hPa WNW 10 mph /  16.1 km/h 7.9 mph /  12.7 km/h 36 % 0 in /  0 mm
13:59 85.7 °F /  29.8 °C 55.7 °F /  13.2 °C 29.91 in /  1012.8 hPa WNW 8.1 mph /  13 km/h 5.1 mph /  8.2 km/h 36 % 0 in /  0 mm
14:04 85.8 °F /  29.9 °C 56.5 °F /  13.6 °C 29.90 in /  1012.4 hPa NW 11.5 mph /  18.5 km/h 9.5 mph /  15.3 km/h 37 % 0 in /  0 mm
14:09 85.8 °F /  29.9 °C 57.3 °F /  14.1 °C 29.90 in /  1012.4 hPa WNW 15 mph /  24.1 km/h 9.2 mph /  14.8 km/h 38 % 0 in /  0 mm
14:14 85.5 °F /  29.7 °C 57 °F /  13.9 °C 29.90 in /  1012.4 hPa West 10.4 mph /  16.7 km/h 7.5 mph /  12.1 km/h 38 % 0 in /  0 mm
14:19 85.9 °F /  29.9 °C 57.3 °F /  14.1 °C 29.90 in /  1012.4 hPa West 9.2 mph /  14.8 km/h 6.4 mph /  10.3 km/h 38 % 0 in /  0 mm
14:24 86.2 °F /  30.1 °C 57.6 °F /  14.2 °C 29.90 in /  1012.4 hPa WNW 10.4 mph /  16.7 km/h 5.6 mph /  9 km/h 38 % 0 in /  0 mm
14:29 86.1 °F /  30.1 °C 56.8 °F /  13.8 °C 29.90 in /  1012.4 hPa WNW 5 mph /  8 km/h 4.8 mph /  7.7 km/h 37 % 0 in /  0 mm
14:34 85.8 °F /  29.9 °C 56.5 °F /  13.6 °C 29.90 in /  1012.4 hPa WNW 12.7 mph /  20.4 km/h 7.9 mph /  12.7 km/h 37 % 0 in /  0 mm
14:39 85.8 °F /  29.9 °C 57.3 °F /  14.1 °C 29.90 in /  1012.4 hPa WNW 9.2 mph /  14.8 km/h 5.4 mph /  8.7 km/h 38 % 0 in /  0 mm
14:44 86.1 °F /  30.1 °C 57.5 °F /  14.2 °C 29.90 in /  1012.4 hPa West 10.4 mph /  16.7 km/h 10.6 mph /  17.1 km/h 38 % 0 in /  0 mm
14:49 85.9 °F /  29.9 °C 56.6 °F /  13.7 °C 29.89 in /  1012.1 hPa WNW 11.5 mph /  18.5 km/h 6.4 mph /  10.3 km/h 37 % 0 in /  0 mm
14:54 85.9 °F /  29.9 °C 56.6 °F /  13.7 °C 29.90 in /  1012.4 hPa North 6.9 mph /  11.1 km/h 4.9 mph /  7.9 km/h 37 % 0 in /  0 mm
14:59 85.9 °F /  29.9 °C 56.6 °F /  13.7 °C 29.90 in /  1012.4 hPa WNW 12 mph /  19.3 km/h 10.1 mph /  16.3 km/h 37 % 0 in /  0 mm
15:04 85.6 °F /  29.8 °C 56.3 °F /  13.5 °C 29.90 in /  1012.4 hPa WNW 8 mph /  12.9 km/h 6.8 mph /  10.9 km/h 37 % 0 in /  0 mm
15:09 85.4 °F /  29.7 °C 55.4 °F /  13 °C 29.90 in /  1012.4 hPa WNW 9.2 mph /  14.8 km/h 5 mph /  8 km/h 36 % 0 in /  0 mm
15:14 85.7 °F /  29.8 °C 55.7 °F /  13.2 °C 29.90 in /  1012.4 hPa WNW 15 mph /  24.1 km/h 7.7 mph /  12.4 km/h 36 % 0 in /  0 mm
15:19 85.6 °F /  29.8 °C 56.3 °F /  13.5 °C 29.90 in /  1012.4 hPa North 10.4 mph /  16.7 km/h 4.9 mph /  7.9 km/h 37 % 0 in /  0 mm
15:24 85.7 °F /  29.8 °C 56.4 °F /  13.6 °C 29.90 in /  1012.4 hPa NW 12.7 mph /  20.4 km/h 7.4 mph /  11.9 km/h 37 % 0 in /  0 mm
15:29 86 °F /  30 °C 56.7 °F /  13.7 °C 29.90 in /  1012.4 hPa West 10.4 mph /  16.7 km/h 5.8 mph /  9.3 km/h 37 % 0 in /  0 mm
15:34 86 °F /  30 °C 55.9 °F /  13.3 °C 29.90 in /  1012.4 hPa WSW 12.7 mph /  20.4 km/h 4.8 mph /  7.7 km/h 36 % 0 in /  0 mm
15:39 85 °F /  29.4 °C 60.6 °F /  15.9 °C 29.91 in /  1012.8 hPa SSW 12.7 mph /  20.4 km/h 9.9 mph /  15.9 km/h 44 % 0 in /  0 mm
15:44 81.8 °F /  27.7 °C 61.3 °F /  16.3 °C 29.91 in /  1012.8 hPa SSW 16.1 mph /  25.9 km/h 9.8 mph /  15.8 km/h 50 % 0 in /  0 mm
15:49 80.7 °F /  27.1 °C 62 °F /  16.7 °C 29.91 in /  1012.8 hPa SSW 8.1 mph /  13 km/h 7.3 mph /  11.7 km/h 53 % 0 in /  0 mm
15:54 80.1 °F /  26.7 °C 61.4 °F /  16.3 °C 29.91 in /  1012.8 hPa SW 17.3 mph /  27.8 km/h 13.7 mph /  22 km/h 53 % 0 in /  0 mm
15:59 79.2 °F /  26.2 °C 61.6 °F /  16.4 °C 29.91 in /  1012.8 hPa SSW 12.7 mph /  20.4 km/h 7.5 mph /  12.1 km/h 55 % 0 in /  0 mm
16:04 78.7 °F /  25.9 °C 61.7 °F /  16.5 °C 29.91 in /  1012.8 hPa SSW 18.4 mph /  29.6 km/h 12.7 mph /  20.4 km/h 56 % 0 in /  0 mm
16:09 77.7 °F /  25.4 °C 61.7 °F /  16.5 °C 29.92 in /  1013.1 hPa SSE 13 mph /  20.9 km/h 9.8 mph /  15.8 km/h 58 % 0 in /  0 mm
16:14 77.4 °F /  25.2 °C 61.5 °F /  16.4 °C 29.92 in /  1013.1 hPa South 13.8 mph /  22.2 km/h 8 mph /  12.9 km/h 58 % 0 in /  0 mm
16:19 77.2 °F /  25.1 °C 61.8 °F /  16.6 °C 29.92 in /  1013.1 hPa SSW 17.3 mph /  27.8 km/h 9.7 mph /  15.6 km/h 59 % 0 in /  0 mm
16:24 77.3 °F /  25.2 °C 61.9 °F /  16.6 °C 29.92 in /  1013.1 hPa SW 11.5 mph /  18.5 km/h 7.3 mph /  11.7 km/h 59 % 0 in /  0 mm
16:29 76.9 °F /  24.9 °C 62 °F /  16.7 °C 29.92 in /  1013.1 hPa SSW 18.4 mph /  29.6 km/h 11.3 mph /  18.2 km/h 60 % 0 in /  0 mm
16:34 76.7 °F /  24.8 °C 61.8 °F /  16.6 °C 29.93 in /  1013.4 hPa SW 11.5 mph /  18.5 km/h 8.1 mph /  13 km/h 60 % 0 in /  0 mm
16:39 76.5 °F /  24.7 °C 61.6 °F /  16.4 °C 29.92 in /  1013.1 hPa SSW 13.8 mph /  22.2 km/h 9.7 mph /  15.6 km/h 60 % 0 in /  0 mm
16:44 76 °F /  24.4 °C 61.6 °F /  16.4 °C 29.93 in /  1013.4 hPa SSW 16.1 mph /  25.9 km/h 6.5 mph /  10.5 km/h 61 % 0 in /  0 mm
16:49 75.6 °F /  24.2 °C 61.2 °F /  16.2 °C 29.93 in /  1013.4 hPa South 13 mph /  20.9 km/h 8.8 mph /  14.2 km/h 61 % 0 in /  0 mm
16:54 75.1 °F /  23.9 °C 61.2 °F /  16.2 °C 29.93 in /  1013.4 hPa SSW 11.5 mph /  18.5 km/h 6.2 mph /  10 km/h 62 % 0 in /  0 mm
16:59 75.1 °F /  23.9 °C 61.2 °F /  16.2 °C 29.93 in /  1013.4 hPa SSW 15 mph /  24.1 km/h 11.5 mph /  18.5 km/h 62 % 0 in /  0 mm
17:04 74.3 °F /  23.5 °C 60.9 °F /  16.1 °C 29.93 in /  1013.4 hPa SW 11.5 mph /  18.5 km/h 11.9 mph /  19.2 km/h 63 % 0 in /  0 mm
17:09 73.3 °F /  22.9 °C 60.8 °F /  16 °C 29.93 in /  1013.4 hPa SSW 16.1 mph /  25.9 km/h 11.5 mph /  18.5 km/h 65 % 0 in /  0 mm
17:14 72.9 °F /  22.7 °C 60.9 °F /  16.1 °C 29.93 in /  1013.4 hPa South 11.5 mph /  18.5 km/h 6.4 mph /  10.3 km/h 66 % 0 in /  0 mm
17:19 72.6 °F /  22.6 °C 61 °F /  16.1 °C 29.94 in /  1013.8 hPa South 11.5 mph /  18.5 km/h 7.2 mph /  11.6 km/h 67 % 0 in /  0 mm
17:24 72.5 °F /  22.5 °C 60.5 °F /  15.8 °C 29.94 in /  1013.8 hPa SW 13.8 mph /  22.2 km/h 12 mph /  19.3 km/h 66 % 0 in /  0 mm
17:29 72.4 °F /  22.4 °C 60.8 °F /  16 °C 29.94 in /  1013.8 hPa South 16.1 mph /  25.9 km/h 11.4 mph /  18.3 km/h 67 % 0 in /  0 mm
17:34 72.3 °F /  22.4 °C 60.7 °F /  15.9 °C 29.94 in /  1013.8 hPa South 12.7 mph /  20.4 km/h 12 mph /  19.3 km/h 67 % 0 in /  0 mm
17:39 71.5 °F /  21.9 °C 60 °F /  15.6 °C 29.94 in /  1013.8 hPa North 18.4 mph /  29.6 km/h 11.1 mph /  17.9 km/h 67 % 0 in /  0 mm
17:44 70.9 °F /  21.6 °C 60.2 °F /  15.7 °C 29.95 in /  1014.1 hPa South 17.3 mph /  27.8 km/h 11.4 mph /  18.3 km/h 69 % 0 in /  0 mm
17:49 70.2 °F /  21.2 °C 60 °F /  15.6 °C 29.95 in /  1014.1 hPa SSW 19.6 mph /  31.5 km/h 12.5 mph /  20.1 km/h 70 % 0 in /  0 mm
17:54 69.8 °F /  21 °C 60 °F /  15.6 °C 29.96 in /  1014.4 hPa SSW 15 mph /  24.1 km/h 10.5 mph /  16.9 km/h 71 % 0 in /  0 mm
17:59 69.4 °F /  20.8 °C 60 °F /  15.6 °C 29.95 in /  1014.1 hPa SSW 17.3 mph /  27.8 km/h 13.7 mph /  22 km/h 72 % 0 in /  0 mm
18:04 69.3 °F /  20.7 °C 59.9 °F /  15.5 °C 29.96 in /  1014.4 hPa South 15 mph /  24.1 km/h 8.8 mph /  14.2 km/h 72 % 0 in /  0 mm
18:09 69 °F /  20.6 °C 59.6 °F /  15.3 °C 29.96 in /  1014.4 hPa South 15 mph /  24.1 km/h 11.1 mph /  17.9 km/h 72 % 0 in /  0 mm
18:14 68.6 °F /  20.3 °C 59.6 °F /  15.3 °C 29.96 in /  1014.4 hPa South 13.8 mph /  22.2 km/h 8.3 mph /  13.4 km/h 73 % 0 in /  0 mm
18:19 68.5 °F /  20.3 °C 59.5 °F /  15.3 °C 29.97 in /  1014.8 hPa SSW 11.5 mph /  18.5 km/h 9.1 mph /  14.6 km/h 73 % 0 in /  0 mm
18:24 68.1 °F /  20.1 °C 59.5 °F /  15.3 °C 29.97 in /  1014.8 hPa SSW 18.4 mph /  29.6 km/h 13.5 mph /  21.7 km/h 74 % 0 in /  0 mm
18:29 67.9 °F /  19.9 °C 59.7 °F /  15.4 °C 29.97 in /  1014.8 hPa SSW 13.8 mph /  22.2 km/h 7.2 mph /  11.6 km/h 75 % 0 in /  0 mm
18:34 67.5 °F /  19.7 °C 58.9 °F /  14.9 °C 29.98 in /  1015.1 hPa South 17.3 mph /  27.8 km/h 11.5 mph /  18.5 km/h 74 % 0 in /  0 mm
18:39 67.1 °F /  19.5 °C 58.9 °F /  14.9 °C 29.98 in /  1015.1 hPa South 15 mph /  24.1 km/h 7.2 mph /  11.6 km/h 75 % 0 in /  0 mm
18:44 67 °F /  19.4 °C 58.8 °F /  14.9 °C 29.98 in /  1015.1 hPa SSW 14 mph /  22.5 km/h 9 mph /  14.5 km/h 75 % 0 in /  0 mm
18:49 66.7 °F /  19.3 °C 58.9 °F /  14.9 °C 29.98 in /  1015.1 hPa SSW 11.5 mph /  18.5 km/h 12.3 mph /  19.8 km/h 76 % 0 in /  0 mm
18:54 66.4 °F /  19.1 °C 58.6 °F /  14.8 °C 29.98 in /  1015.1 hPa South 19.6 mph /  31.5 km/h 11.4 mph /  18.3 km/h 76 % 0 in /  0 mm
18:59 66.2 °F /  19 °C 58.8 °F /  14.9 °C 29.98 in /  1015.1 hPa South 11.5 mph /  18.5 km/h 5.4 mph /  8.7 km/h 77 % 0 in /  0 mm
19:04 65.8 °F /  18.8 °C 58.4 °F /  14.7 °C 29.98 in /  1015.1 hPa South 15 mph /  24.1 km/h 10.9 mph /  17.5 km/h 77 % 0 in /  0 mm
19:09 65.6 °F /  18.7 °C 58.6 °F /  14.8 °C 29.98 in /  1015.1 hPa South 16.1 mph /  25.9 km/h 8.2 mph /  13.2 km/h 78 % 0 in /  0 mm
19:14 65.5 °F /  18.6 °C 58.5 °F /  14.7 °C 29.98 in /  1015.1 hPa South 9.2 mph /  14.8 km/h 8.6 mph /  13.8 km/h 78 % 0 in /  0 mm
19:19 65.5 °F /  18.6 °C 58.5 °F /  14.7 °C 29.99 in /  1015.5 hPa South 14 mph /  22.5 km/h 8.5 mph /  13.7 km/h 78 % 0 in /  0 mm
19:24 65.4 °F /  18.6 °C 58.4 °F /  14.7 °C 29.99 in /  1015.5 hPa South 16.1 mph /  25.9 km/h 9.9 mph /  15.9 km/h 78 % 0 in /  0 mm
19:29 65.3 °F /  18.5 °C 58.6 °F /  14.8 °C 29.99 in /  1015.5 hPa SSE 16.1 mph /  25.9 km/h 6.8 mph /  10.9 km/h 79 % 0 in /  0 mm
19:34 65.2 °F /  18.4 °C 58.5 °F /  14.7 °C 29.99 in /  1015.5 hPa South 17.3 mph /  27.8 km/h 6.9 mph /  11.1 km/h 79 % 0 in /  0 mm
19:39 65.1 °F /  18.4 °C 58.8 °F /  14.9 °C 30.00 in /  1015.8 hPa South 11.5 mph /  18.5 km/h 8.5 mph /  13.7 km/h 80 % 0 in /  0 mm
19:44 64.9 °F /  18.3 °C 58.6 °F /  14.8 °C 30.00 in /  1015.8 hPa South 9.2 mph /  14.8 km/h 5.7 mph /  9.2 km/h 80 % 0 in /  0 mm
19:49 64.7 °F /  18.2 °C 58.4 °F /  14.7 °C 30.00 in /  1015.8 hPa South 12.7 mph /  20.4 km/h 8.6 mph /  13.8 km/h 80 % 0 in /  0 mm
19:54 64.3 °F /  17.9 °C 58 °F /  14.4 °C 30.00 in /  1015.8 hPa South 18.4 mph /  29.6 km/h 6.6 mph /  10.6 km/h 80 % 0 in /  0 mm
19:59 64.2 °F /  17.9 °C 58.2 °F /  14.6 °C 30.00 in /  1015.8 hPa SSW 11.5 mph /  18.5 km/h 6.6 mph /  10.6 km/h 81 % 0 in /  0 mm
20:04 63.9 °F /  17.7 °C 58 °F /  14.4 °C 30.00 in /  1015.8 hPa SSW 18.4 mph /  29.6 km/h 4.3 mph /  6.9 km/h 81 % 0 in /  0 mm
20:09 63.7 °F /  17.6 °C 58.1 °F /  14.5 °C 30.01 in /  1016.1 hPa South 14 mph /  22.5 km/h 7.5 mph /  12.1 km/h 82 % 0 in /  0 mm
20:14 63.4 °F /  17.4 °C 57.8 °F /  14.3 °C 30.01 in /  1016.1 hPa South 11.5 mph /  18.5 km/h 9.1 mph /  14.6 km/h 82 % 0 in /  0 mm
20:19 63 °F /  17.2 °C 57.8 °F /  14.3 °C 30.01 in /  1016.1 hPa South 9.2 mph /  14.8 km/h 6.1 mph /  9.8 km/h 83 % 0 in /  0 mm
20:24 62.5 °F /  16.9 °C 57.3 °F /  14.1 °C 30.01 in /  1016.1 hPa North 16.1 mph /  25.9 km/h 12.1 mph /  19.5 km/h 83 % 0 in /  0 mm
20:29 61.9 °F /  16.6 °C 57 °F /  13.9 °C 30.02 in /  1016.5 hPa SSW 17.3 mph /  27.8 km/h 10.7 mph /  17.2 km/h 84 % 0 in /  0 mm
20:34 61.4 °F /  16.3 °C 56.8 °F /  13.8 °C 30.02 in /  1016.5 hPa South 17.3 mph /  27.8 km/h 11.8 mph /  19 km/h 85 % 0 in /  0 mm
20:39 61 °F /  16.1 °C 56.8 °F /  13.8 °C 30.02 in /  1016.5 hPa South 10.4 mph /  16.7 km/h 6.3 mph /  10.1 km/h 86 % 0 in /  0 mm
20:44 60.7 °F /  15.9 °C 56.8 °F /  13.8 °C 30.02 in /  1016.5 hPa South 19.6 mph /  31.5 km/h 10.7 mph /  17.2 km/h 87 % 0 in /  0 mm
20:49 60.5 °F /  15.8 °C 56.6 °F /  13.7 °C 30.02 in /  1016.5 hPa SSW 12 mph /  19.3 km/h 9.1 mph /  14.6 km/h 87 % 0 in /  0 mm
20:54 60.3 °F /  15.7 °C 56.4 °F /  13.6 °C 30.02 in /  1016.5 hPa South 18.4 mph /  29.6 km/h 10.5 mph /  16.9 km/h 87 % 0 in /  0 mm
20:59 60.2 °F /  15.7 °C 56.6 °F /  13.7 °C 30.02 in /  1016.5 hPa South 19 mph /  30.6 km/h 10.3 mph /  16.6 km/h 88 % 0 in /  0 mm
21:04 60.1 °F /  15.6 °C 56.5 °F /  13.6 °C 30.02 in /  1016.5 hPa South 16.1 mph /  25.9 km/h 10.7 mph /  17.2 km/h 88 % 0 in /  0 mm
21:09 60 °F /  15.6 °C 56.4 °F /  13.6 °C 30.02 in /  1016.5 hPa SSE 11.5 mph /  18.5 km/h 3 mph /  4.8 km/h 88 % 0 in /  0 mm
21:14 60 °F /  15.6 °C 56.4 °F /  13.6 °C 30.02 in /  1016.5 hPa SSE 11.5 mph /  18.5 km/h 10.4 mph /  16.7 km/h 88 % 0 in /  0 mm
21:19 59.8 °F /  15.4 °C 56.2 °F /  13.4 °C 30.02 in /  1016.5 hPa SSW 12.7 mph /  20.4 km/h 8.7 mph /  14 km/h 88 % 0 in /  0 mm
21:24 59.5 °F /  15.3 °C 56.3 °F /  13.5 °C 30.03 in /  1016.8 hPa North 15 mph /  24.1 km/h 9.2 mph /  14.8 km/h 89 % 0 in /  0 mm
21:29 59.3 °F /  15.2 °C 56.1 °F /  13.4 °C 30.03 in /  1016.8 hPa South 10 mph /  16.1 km/h 8.5 mph /  13.7 km/h 89 % 0 in /  0 mm
21:34 59.2 °F /  15.1 °C 56 °F /  13.3 °C 30.03 in /  1016.8 hPa South 11.5 mph /  18.5 km/h 8.8 mph /  14.2 km/h 89 % 0 in /  0 mm
21:39 59 °F /  15 °C 56.1 °F /  13.4 °C 30.03 in /  1016.8 hPa South 19.6 mph /  31.5 km/h 12 mph /  19.3 km/h 90 % 0 in /  0 mm
21:44 58.8 °F /  14.9 °C 55.9 °F /  13.3 °C 30.04 in /  1017.2 hPa SSE 17.3 mph /  27.8 km/h 7.9 mph /  12.7 km/h 90 % 0 in /  0 mm
21:49 58.7 °F /  14.8 °C 55.8 °F /  13.2 °C 30.03 in /  1016.8 hPa South 13.8 mph /  22.2 km/h 7.1 mph /  11.4 km/h 90 % 0 in /  0 mm
21:54 58.6 °F /  14.8 °C 56 °F /  13.3 °C 30.04 in /  1017.2 hPa South 16.1 mph /  25.9 km/h 9.5 mph /  15.3 km/h 91 % 0 in /  0 mm
21:59 58.4 °F /  14.7 °C 55.8 °F /  13.2 °C 30.04 in /  1017.2 hPa South 15 mph /  24.1 km/h 10.3 mph /  16.6 km/h 91 % 0 in /  0 mm
22:04 58.3 °F /  14.6 °C 55.7 °F /  13.2 °C 30.04 in /  1017.2 hPa South 18.4 mph /  29.6 km/h 12.5 mph /  20.1 km/h 91 % 0 in /  0 mm
22:09 58.1 °F /  14.5 °C 55.2 °F /  12.9 °C 30.04 in /  1017.2 hPa South 12.7 mph /  20.4 km/h 5.6 mph /  9 km/h 90 % 0 in /  0 mm
22:14 58 °F /  14.4 °C 55.4 °F /  13 °C 30.04 in /  1017.2 hPa South 15 mph /  24.1 km/h 10.7 mph /  17.2 km/h 91 % 0 in /  0 mm
22:19 57.9 °F /  14.4 °C 55.3 °F /  12.9 °C 30.04 in /  1017.2 hPa South 13.8 mph /  22.2 km/h 9.2 mph /  14.8 km/h 91 % 0 in /  0 mm
22:24 57.8 °F /  14.3 °C 55.2 °F /  12.9 °C 30.05 in /  1017.5 hPa South 13 mph /  20.9 km/h 7.6 mph /  12.2 km/h 91 % 0 in /  0 mm
22:29 57.8 °F /  14.3 °C 55.2 °F /  12.9 °C 30.05 in /  1017.5 hPa SSE 8.1 mph /  13 km/h 6.1 mph /  9.8 km/h 91 % 0 in /  0 mm
22:34 57.8 °F /  14.3 °C 55.2 °F /  12.9 °C 30.05 in /  1017.5 hPa South 17 mph /  27.4 km/h 8.5 mph /  13.7 km/h 91 % 0 in /  0 mm
22:39 57.7 °F /  14.3 °C 55.1 °F /  12.8 °C 30.05 in /  1017.5 hPa South 12.7 mph /  20.4 km/h 8.1 mph /  13 km/h 91 % 0 in /  0 mm
22:44 57.6 °F /  14.2 °C 55 °F /  12.8 °C 30.05 in /  1017.5 hPa SSE 17.3 mph /  27.8 km/h 7.8 mph /  12.6 km/h 91 % 0 in /  0 mm
22:49 57.5 °F /  14.2 °C 54.9 °F /  12.7 °C 30.05 in /  1017.5 hPa SSE 16.1 mph /  25.9 km/h 8.3 mph /  13.4 km/h 91 % 0 in /  0 mm
22:54 57.4 °F /  14.1 °C 54.8 °F /  12.7 °C 30.05 in /  1017.5 hPa South 12.7 mph /  20.4 km/h 10 mph /  16.1 km/h 91 % 0 in /  0 mm
22:59 57.3 °F /  14.1 °C 54.7 °F /  12.6 °C 30.06 in /  1017.8 hPa South 12.7 mph /  20.4 km/h 4.3 mph /  6.9 km/h 91 % 0 in /  0 mm
23:04 57.2 °F /  14 °C 54.6 °F /  12.6 °C 30.05 in /  1017.5 hPa SSE 17.3 mph /  27.8 km/h 10.4 mph /  16.7 km/h 91 % 0 in /  0 mm
23:09 57.1 °F /  13.9 °C 54.5 °F /  12.5 °C 30.05 in /  1017.5 hPa South 15 mph /  24.1 km/h 7.2 mph /  11.6 km/h 91 % 0 in /  0 mm
23:14 57 °F /  13.9 °C 54.4 °F /  12.4 °C 30.05 in /  1017.5 hPa SSW 11.5 mph /  18.5 km/h 8.5 mph /  13.7 km/h 91 % 0 in /  0 mm
23:19 57 °F /  13.9 °C 54.4 °F /  12.4 °C 30.05 in /  1017.5 hPa South 12.7 mph /  20.4 km/h 7.8 mph /  12.6 km/h 91 % 0 in /  0 mm
23:24 57 °F /  13.9 °C 54.4 °F /  12.4 °C 30.05 in /  1017.5 hPa South 16.1 mph /  25.9 km/h 9.3 mph /  15 km/h 91 % 0 in /  0 mm
23:29 57 °F /  13.9 °C 54.4 °F /  12.4 °C 30.05 in /  1017.5 hPa South 11.5 mph /  18.5 km/h 8.3 mph /  13.4 km/h 91 % 0 in /  0 mm
23:34 57 °F /  13.9 °C 54.4 °F /  12.4 °C 30.05 in /  1017.5 hPa North 16 mph /  25.7 km/h 10.5 mph /  16.9 km/h 91 % 0 in /  0 mm
23:39 57 °F /  13.9 °C 54.4 °F /  12.4 °C 30.04 in /  1017.2 hPa South 13.8 mph /  22.2 km/h 9.4 mph /  15.1 km/h 91 % 0 in /  0 mm
23:44 57 °F /  13.9 °C 54.7 °F /  12.6 °C 30.04 in /  1017.2 hPa South 12.7 mph /  20.4 km/h 10.6 mph /  17.1 km/h 92 % 0 in /  0 mm
23:49 57.1 °F /  13.9 °C 54.8 °F /  12.7 °C 30.04 in /  1017.2 hPa North 11.5 mph /  18.5 km/h 9.7 mph /  15.6 km/h 92 % 0 in /  0 mm
23:54 57.1 °F /  13.9 °C 54.8 °F /  12.7 °C 30.04 in /  1017.2 hPa SSE 12.7 mph /  20.4 km/h 8.4 mph /  13.5 km/h 92 % 0 in /  0 mm
23:59 57.1 °F /  13.9 °C 54.8 °F /  12.7 °C 30.04 in /  1017.2 hPa South 15 mph /  24.1 km/h 7.8 mph /  12.6 km/h 92 % 0 in /  0 mm
Ararat Weather
Compliments of Weather Underground - 2.25 mb
Click here to send mail.


ABOUT

Live weather data from Ararat, Victoria, Australia, 3377
Data uploaded from Cumulus every 5 minutes to Weather Underground.
This site then downloads the raw data for formatting and display.
Metric and imperial data can be displayed. Graphs and historical data available.
Includes Sun and Moon times and rain image live from BOM.

Check out Ararat Weather on Facebook, Twitter and Google +

Help support ongoing costs by checking out the ads





Follow @AraratWeather